createdAt,value
2023-02-02T00:00:59.380Z,1.90
2023-02-02T00:04:02.526Z,1.33
2023-02-02T00:07:05.685Z,1.10
2023-02-02T00:10:08.846Z,1.05
2023-02-02T00:13:12.292Z,1.75
2023-02-02T00:16:27.192Z,0.70
2023-02-02T00:19:31.532Z,1.10
2023-02-02T00:22:34.470Z,1.10
2023-02-02T00:25:36.803Z,0.88
2023-02-02T00:28:39.468Z,1.10
2023-02-02T00:31:41.949Z,1.35
2023-02-02T00:34:44.664Z,1.37
2023-02-02T00:37:47.199Z,0.90
2023-02-02T00:40:49.963Z,1.00
2023-02-02T00:44:12.194Z,1.20
2023-02-02T00:47:14.894Z,1.10
2023-02-02T00:50:19.958Z,1.20
2023-02-02T00:53:22.584Z,0.62
2023-02-02T00:56:25.964Z,1.10
2023-02-02T00:59:28.831Z,0.80
2023-02-02T01:02:31.245Z,0.52
2023-02-02T01:05:34.945Z,1.07
2023-02-02T01:08:37.322Z,1.05
2023-02-02T01:11:40.012Z,0.77
2023-02-02T01:14:42.764Z,1.08
2023-02-02T01:17:45.649Z,1.00
2023-02-02T01:20:48.740Z,1.20
2023-02-02T01:23:51.524Z,0.85
2023-02-02T01:26:53.986Z,1.30
2023-02-02T01:29:56.596Z,0.88
2023-02-02T01:32:59.263Z,1.00
2023-02-02T01:36:08.280Z,0.70
2023-02-02T01:39:10.711Z,1.20
2023-02-02T01:42:18.872Z,0.73
2023-02-02T01:45:26.695Z,0.52
2023-02-02T01:48:34.666Z,0.70
2023-02-02T01:51:50.740Z,0.37
2023-02-02T01:54:57.987Z,0.30
2023-02-02T01:58:15.827Z,0.80
2023-02-02T02:01:18.587Z,0.57
2023-02-02T02:04:22.172Z,0.40
2023-02-02T02:07:24.649Z,0.50
2023-02-02T02:10:27.536Z,0.30
2023-02-02T02:13:50.796Z,0.30
2023-02-02T02:17:06.805Z,0.20
2023-02-02T02:20:47.853Z,0.50
2023-02-02T02:24:41.726Z,0.30
2023-02-02T02:27:46.951Z,0.43
2023-02-02T02:31:00.106Z,0.45
2023-02-02T02:34:19.728Z,0.65
2023-02-02T02:37:27.896Z,0.40
2023-02-02T02:40:48.268Z,0.60
2023-02-02T02:43:57.912Z,0.50
2023-02-02T02:47:01.011Z,0.50
2023-02-02T02:50:04.437Z,0.52
2023-02-02T02:53:15.420Z,0.80
2023-02-02T02:56:38.116Z,0.50
2023-02-02T02:59:53.220Z,0.62
2023-02-02T03:03:11.107Z,0.90
2023-02-02T03:06:31.867Z,0.60
2023-02-02T03:09:39.623Z,0.40
2023-02-02T03:12:50.473Z,1.17
2023-02-02T03:15:53.790Z,1.10
2023-02-02T03:18:57.313Z,0.70
2023-02-02T03:21:59.968Z,0.70
2023-02-02T03:25:02.377Z,0.82
2023-02-02T03:28:06.676Z,0.87
2023-02-02T03:31:09.351Z,0.93
2023-02-02T03:34:12.027Z,0.57
2023-02-02T03:37:14.400Z,0.82
2023-02-02T03:40:17.600Z,0.80
2023-02-02T03:43:23.966Z,0.63
2023-02-02T03:46:26.676Z,0.62
2023-02-02T03:49:29.135Z,0.90
2023-02-02T03:52:31.872Z,0.93
2023-02-02T03:55:35.127Z,0.82
2023-02-02T03:58:37.793Z,1.13
2023-02-02T04:01:40.236Z,1.00
2023-02-02T04:04:42.963Z,0.80
2023-02-02T04:07:45.290Z,0.82
2023-02-02T04:10:48.260Z,0.70
2023-02-02T04:13:50.587Z,0.50
2023-02-02T04:16:53.273Z,0.75
2023-02-02T04:19:58.253Z,0.77
2023-02-02T04:23:01.965Z,0.50
2023-02-02T04:26:05.151Z,0.90
2023-02-02T04:29:08.115Z,0.80
2023-02-02T04:32:10.444Z,0.60
2023-02-02T04:35:13.216Z,0.60
2023-02-02T04:38:15.589Z,0.60
2023-02-02T04:41:21.363Z,0.55
2023-02-02T04:44:23.737Z,0.80
2023-02-02T04:47:26.359Z,0.70
2023-02-02T04:50:29.154Z,0.90
2023-02-02T04:53:32.600Z,0.80
2023-02-02T04:56:35.374Z,0.40
2023-02-02T04:59:39.469Z,0.67
2023-02-02T05:02:43.561Z,0.90
2023-02-02T05:05:46.500Z,0.75
2023-02-02T05:08:49.700Z,1.20
2023-02-02T05:11:52.386Z,0.98
2023-02-02T05:14:54.778Z,0.90
2023-02-02T05:17:57.481Z,0.95
2023-02-02T05:21:01.705Z,1.08
2023-02-02T05:24:04.603Z,0.80
2023-02-02T05:27:06.882Z,0.65
2023-02-02T05:30:12.484Z,0.50
2023-02-02T05:33:15.816Z,0.90
2023-02-02T05:36:18.524Z,1.55
2023-02-02T05:39:20.997Z,0.82
2023-02-02T05:42:23.688Z,0.70
2023-02-02T05:45:26.469Z,0.90
2023-02-02T05:48:29.411Z,0.93
2023-02-02T05:51:41.203Z,0.82
2023-02-02T05:54:44.491Z,1.25
2023-02-02T05:57:46.854Z,1.00
2023-02-02T06:00:49.719Z,1.10
2023-02-02T06:03:52.436Z,1.20
2023-02-02T06:06:54.800Z,1.23
2023-02-02T06:09:58.253Z,1.20
2023-02-02T06:13:00.736Z,0.85
2023-02-02T06:16:03.916Z,1.13
2023-02-02T06:19:06.302Z,0.93
2023-02-02T06:22:09.328Z,1.05
2023-02-02T06:25:11.669Z,0.80
2023-02-02T06:28:14.288Z,1.15
2023-02-02T06:31:19.485Z,0.50
2023-02-02T06:34:22.309Z,0.80
2023-02-02T06:37:24.742Z,0.60
2023-02-02T06:40:28.588Z,0.70
2023-02-02T06:43:31.221Z,1.00
2023-02-02T06:46:33.897Z,0.73
2023-02-02T06:49:36.263Z,0.98
2023-02-02T06:52:39.073Z,0.80
2023-02-02T06:55:41.535Z,0.55
2023-02-02T06:58:44.143Z,0.40
2023-02-02T07:01:49.509Z,0.60
2023-02-02T07:04:52.193Z,0.90
2023-02-02T07:07:54.516Z,0.90
2023-02-02T07:11:13.278Z,0.80
2023-02-02T07:14:18.073Z,0.80
2023-02-02T07:17:20.773Z,0.90
2023-02-02T07:20:23.149Z,0.60
2023-02-02T07:23:26.976Z,0.90
2023-02-02T07:26:29.470Z,0.85
2023-02-02T07:29:32.354Z,0.80
2023-02-02T07:32:34.678Z,0.97
2023-02-02T07:35:37.346Z,0.73
2023-02-02T07:38:39.793Z,0.90
2023-02-02T07:41:43.904Z,0.90
2023-02-02T07:44:48.977Z,0.77
2023-02-02T07:47:56.959Z,0.97
2023-02-02T07:51:04.627Z,0.98
2023-02-02T07:54:07.710Z,0.70
2023-02-02T07:57:10.858Z,1.00
2023-02-02T08:00:14.116Z,3.85
2023-02-02T08:03:18.185Z,1.00
2023-02-02T08:06:25.906Z,0.80
2023-02-02T08:09:28.738Z,0.70
2023-02-02T08:12:31.107Z,0.80
2023-02-02T08:15:33.736Z,0.80
2023-02-02T08:18:37.289Z,1.13
2023-02-02T08:21:40.072Z,0.60
2023-02-02T08:24:43.040Z,1.00
2023-02-02T08:27:45.729Z,1.00
2023-02-02T08:30:48.215Z,0.77
2023-02-02T08:33:51.719Z,1.40
2023-02-02T08:36:54.041Z,0.90
2023-02-02T08:39:56.731Z,1.08
2023-02-02T08:42:59.909Z,1.33
2023-02-02T08:46:13.909Z,1.30
2023-02-02T08:49:16.723Z,0.97
2023-02-02T08:52:19.421Z,1.00
2023-02-02T08:55:22.236Z,0.90
2023-02-02T08:58:25.116Z,0.60
2023-02-02T09:01:29.999Z,1.33
2023-02-02T09:04:32.640Z,1.00
2023-02-02T09:07:35.073Z,0.70
2023-02-02T09:10:38.556Z,1.27
2023-02-02T09:13:42.686Z,0.95
2023-02-02T09:16:45.583Z,0.70
2023-02-02T09:19:48.017Z,1.33
2023-02-02T09:22:50.682Z,1.00
2023-02-02T09:25:53.156Z,0.70
2023-02-02T09:29:04.725Z,1.35
2023-02-02T09:32:07.071Z,1.20
2023-02-02T09:35:10.144Z,0.70
2023-02-02T09:38:12.614Z,0.77
2023-02-02T09:41:37.429Z,0.88
2023-02-02T09:45:29.462Z,0.80
2023-02-02T09:48:38.620Z,0.80
2023-02-02T09:51:52.138Z,0.80
2023-02-02T09:55:13.274Z,0.90
2023-02-02T09:58:18.387Z,1.08
2023-02-02T10:01:24.107Z,0.77
2023-02-02T10:04:43.103Z,0.80
2023-02-02T10:07:50.505Z,0.60
2023-02-02T10:10:54.372Z,0.90
2023-02-02T10:14:02.744Z,0.70
2023-02-02T10:17:35.771Z,0.80
2023-02-02T10:21:00.967Z,0.30
2023-02-02T10:24:04.556Z,0.60
2023-02-02T10:27:15.644Z,0.90
2023-02-02T10:30:24.652Z,1.02
2023-02-02T10:33:38.485Z,1.02
2023-02-02T10:37:13.729Z,0.80
2023-02-02T10:40:30.715Z,0.70
2023-02-02T10:43:48.495Z,1.12
2023-02-02T10:46:56.504Z,1.45
2023-02-02T10:50:28.941Z,1.23
2023-02-02T10:53:33.290Z,0.90
2023-02-02T10:56:40.354Z,0.73
2023-02-02T10:59:59.713Z,0.50
2023-02-02T11:03:04.839Z,0.77
2023-02-02T11:06:27.231Z,1.10
2023-02-02T11:09:38.553Z,0.80
2023-02-02T11:12:45.156Z,1.00
2023-02-02T11:15:48.093Z,1.05
2023-02-02T11:18:50.596Z,0.70
2023-02-02T11:21:56.754Z,1.02
2023-02-02T11:25:02.495Z,0.73
2023-02-02T11:28:20.607Z,1.13
2023-02-02T11:31:37.137Z,0.40
2023-02-02T11:34:40.061Z,0.68
2023-02-02T11:38:10.507Z,0.90
2023-02-02T11:41:15.409Z,0.90
2023-02-02T11:44:28.772Z,1.20
2023-02-02T11:47:33.620Z,1.23
2023-02-02T11:50:36.663Z,0.93
2023-02-02T11:53:46.652Z,0.57
2023-02-02T11:56:53.086Z,1.12
2023-02-02T12:00:18.683Z,1.33
2023-02-02T12:03:30.559Z,1.30
2023-02-02T12:06:33.473Z,0.77
2023-02-02T12:09:36.367Z,0.80
2023-02-02T12:13:23.816Z,1.08
2023-02-02T12:16:42.762Z,1.00
2023-02-02T12:20:08.556Z,0.35
2023-02-02T12:23:27.055Z,0.57
2023-02-02T12:26:32.222Z,0.93
2023-02-02T12:30:01.419Z,0.70
2023-02-02T12:33:06.880Z,0.77
2023-02-02T12:36:27.549Z,0.70
2023-02-02T12:39:48.342Z,1.30
2023-02-02T12:43:28.119Z,0.95
2023-02-02T12:46:53.428Z,1.08
2023-02-02T12:50:02.767Z,1.00
2023-02-02T12:53:23.700Z,0.90
2023-02-02T12:56:51.876Z,0.93
2023-02-02T13:00:28.863Z,1.25
2023-02-02T13:03:53.535Z,1.40
2023-02-02T13:07:29.821Z,1.10
2023-02-02T13:10:38.341Z,1.42
2023-02-02T13:13:41.104Z,1.02
2023-02-02T13:16:49.000Z,1.20
2023-02-02T13:19:55.624Z,1.58
2023-02-02T13:23:02.604Z,1.10
2023-02-02T13:26:13.383Z,1.00
2023-02-02T13:29:23.158Z,1.35
2023-02-02T13:32:33.788Z,1.30
2023-02-02T13:36:03.787Z,0.95
2023-02-02T13:39:17.433Z,1.10
2023-02-02T13:42:37.178Z,1.50
2023-02-02T13:45:57.906Z,0.80
2023-02-02T13:49:07.409Z,1.50
2023-02-02T13:52:31.543Z,1.60
2023-02-02T13:55:56.672Z,0.93
2023-02-02T13:59:17.541Z,1.00
2023-02-02T14:02:42.108Z,1.08
2023-02-02T14:06:03.679Z,0.93
2023-02-02T14:09:08.040Z,1.10
2023-02-02T14:12:11.696Z,1.83
2023-02-02T14:15:14.142Z,1.37
2023-02-02T14:18:48.548Z,1.98
2023-02-02T14:22:09.180Z,1.30
2023-02-02T14:25:47.992Z,1.08
2023-02-02T14:28:51.728Z,1.20
2023-02-02T14:31:56.683Z,1.30
2023-02-02T14:35:00.243Z,1.75
2023-02-02T14:38:14.581Z,1.60
2023-02-02T14:42:00.974Z,1.62
2023-02-02T14:45:12.813Z,1.77
2023-02-02T14:48:22.093Z,1.50
2023-02-02T14:51:28.583Z,1.20
2023-02-02T14:54:36.179Z,0.70
2023-02-02T14:57:38.993Z,1.30
2023-02-02T15:00:41.366Z,1.30
2023-02-02T15:03:44.569Z,0.88
2023-02-02T15:06:49.403Z,1.27
2023-02-02T15:09:56.362Z,1.27
2023-02-02T15:13:12.291Z,1.33
2023-02-02T15:16:25.556Z,1.00
2023-02-02T15:19:36.087Z,1.35
2023-02-02T15:22:48.907Z,0.98
2023-02-02T15:26:15.380Z,1.37
2023-02-02T15:29:30.545Z,1.30
2023-02-02T15:32:34.102Z,0.70
2023-02-02T15:35:38.293Z,1.17
2023-02-02T15:38:43.186Z,1.30
2023-02-02T15:41:47.808Z,2.08
2023-02-02T15:44:50.187Z,1.40
2023-02-02T15:47:53.116Z,1.30
2023-02-02T15:50:57.046Z,1.02
2023-02-02T15:53:59.697Z,1.73
2023-02-02T15:57:02.976Z,1.60
2023-02-02T16:00:32.694Z,1.25
2023-02-02T16:04:08.455Z,2.13
2023-02-02T16:07:27.036Z,1.75
2023-02-02T16:10:29.812Z,2.60
2023-02-02T16:13:33.331Z,1.90
2023-02-02T16:16:38.702Z,1.55
2023-02-02T16:19:44.172Z,2.10
2023-02-02T16:22:47.998Z,1.60
2023-02-02T16:25:53.267Z,1.23
2023-02-02T16:28:56.578Z,1.52
2023-02-02T16:31:59.073Z,1.27
2023-02-02T16:35:05.825Z,1.93
2023-02-02T16:38:31.341Z,1.73
2023-02-02T16:41:35.675Z,2.62
2023-02-02T16:44:43.874Z,2.47
2023-02-02T16:47:46.645Z,1.80
2023-02-02T16:51:04.305Z,2.00
2023-02-02T16:54:06.889Z,1.60
2023-02-02T16:57:19.644Z,1.77
2023-02-02T17:00:28.331Z,1.40
2023-02-02T17:03:35.745Z,1.20
2023-02-02T17:06:51.992Z,1.43
2023-02-02T17:10:17.248Z,1.60
2023-02-02T17:13:36.556Z,1.80
2023-02-02T17:16:39.046Z,1.27
2023-02-02T17:19:41.848Z,1.42
2023-02-02T17:22:48.305Z,1.60
2023-02-02T17:25:51.406Z,1.52
2023-02-02T17:28:57.930Z,1.30
2023-02-02T17:32:00.623Z,1.52
2023-02-02T17:35:14.075Z,1.67
2023-02-02T17:38:17.538Z,1.33
2023-02-02T17:41:19.877Z,1.20
2023-02-02T17:44:22.543Z,1.80
2023-02-02T17:47:24.831Z,1.98
2023-02-02T17:50:28.562Z,1.40
2023-02-02T17:53:33.504Z,1.00
2023-02-02T17:56:36.194Z,1.42
2023-02-02T17:59:38.512Z,1.40
2023-02-02T18:02:41.222Z,0.70
2023-02-02T18:05:44.031Z,1.48
2023-02-02T18:08:46.821Z,1.30
2023-02-02T18:11:49.920Z,1.20
2023-02-02T18:14:52.462Z,1.50
2023-02-02T18:17:56.899Z,1.50
2023-02-02T18:20:59.424Z,1.70
2023-02-02T18:24:02.121Z,1.40
2023-02-02T18:27:04.453Z,1.52
2023-02-02T18:30:07.592Z,1.50
2023-02-02T18:33:10.922Z,1.83
2023-02-02T18:36:19.955Z,1.80
2023-02-02T18:39:22.370Z,1.27
2023-02-02T18:42:29.870Z,1.33
2023-02-02T18:45:32.322Z,1.00
2023-02-02T18:48:35.771Z,1.30
2023-02-02T18:51:38.115Z,1.40
2023-02-02T18:54:40.697Z,1.60
2023-02-02T18:57:43.219Z,1.87
2023-02-02T19:00:46.899Z,1.55
2023-02-02T19:03:51.826Z,2.15
2023-02-02T19:07:13.043Z,1.45
2023-02-02T19:10:17.537Z,1.37
2023-02-02T19:13:21.746Z,1.80
2023-02-02T19:16:29.051Z,2.00
2023-02-02T19:19:35.196Z,1.92
2023-02-02T19:22:37.638Z,1.70
2023-02-02T19:25:42.078Z,1.80
2023-02-02T19:28:44.467Z,1.65
2023-02-02T19:31:52.489Z,1.45
2023-02-02T19:34:58.615Z,2.08
2023-02-02T19:38:02.942Z,1.92
2023-02-02T19:41:17.090Z,1.90
2023-02-02T19:44:23.043Z,1.70
2023-02-02T19:47:33.820Z,1.40
2023-02-02T19:50:43.221Z,2.30
2023-02-02T19:53:45.879Z,1.70
2023-02-02T19:56:50.117Z,1.30
2023-02-02T19:59:53.735Z,2.00
2023-02-02T20:03:05.007Z,2.28
2023-02-02T20:06:16.210Z,2.12
2023-02-02T20:09:20.303Z,2.80
2023-02-02T20:12:27.533Z,2.13
2023-02-02T20:15:35.738Z,1.98
2023-02-02T20:18:44.406Z,1.87
2023-02-02T20:21:50.095Z,1.60
2023-02-02T20:24:54.725Z,2.17
2023-02-02T20:27:58.994Z,1.60
2023-02-02T20:31:04.638Z,1.30
2023-02-02T20:34:27.568Z,1.90
2023-02-02T20:37:35.753Z,1.60
2023-02-02T20:40:38.094Z,1.62
2023-02-02T20:43:40.699Z,2.37
2023-02-02T20:46:43.175Z,2.33
2023-02-02T20:49:45.949Z,2.00
2023-02-02T20:52:48.688Z,2.35
2023-02-02T20:55:56.763Z,2.12
2023-02-02T20:58:59.333Z,2.30
2023-02-02T21:02:02.645Z,2.70
2023-02-02T21:05:05.348Z,2.62
2023-02-02T21:08:08.445Z,2.10
2023-02-02T21:11:13.572Z,2.55
2023-02-02T21:14:16.280Z,1.83
2023-02-02T21:17:18.909Z,1.27
2023-02-02T21:20:21.619Z,2.00
2023-02-02T21:23:24.085Z,1.77
2023-02-02T21:26:30.913Z,2.47
2023-02-02T21:29:33.813Z,2.13
2023-02-02T21:32:36.361Z,2.33
2023-02-02T21:35:38.972Z,2.45
2023-02-02T21:38:41.281Z,2.08
2023-02-02T21:41:44.089Z,2.35
2023-02-02T21:44:53.818Z,2.20
2023-02-02T21:47:59.020Z,2.45
2023-02-02T21:51:21.429Z,1.83
2023-02-02T21:54:30.642Z,2.30
2023-02-02T21:57:37.171Z,2.50
2023-02-02T22:00:39.813Z,2.57
2023-02-02T22:03:46.846Z,2.12
2023-02-02T22:06:51.649Z,2.90
2023-02-02T22:09:55.155Z,2.10
2023-02-02T22:12:57.599Z,1.90
2023-02-02T22:16:00.485Z,3.07
2023-02-02T22:19:24.965Z,2.65
2023-02-02T22:22:34.539Z,2.67
2023-02-02T22:25:37.645Z,3.03
2023-02-02T22:28:40.535Z,2.75
2023-02-02T22:31:43.142Z,2.23
2023-02-02T22:34:45.801Z,2.62
2023-02-02T22:37:48.233Z,2.40
2023-02-02T22:40:51.712Z,2.70
2023-02-02T22:43:54.049Z,2.25
2023-02-02T22:46:56.709Z,2.10
2023-02-02T22:49:59.113Z,2.05
2023-02-02T22:53:02.861Z,1.80
2023-02-02T22:56:05.717Z,1.77
2023-02-02T22:59:08.367Z,2.28
2023-02-02T23:02:10.678Z,2.37
2023-02-02T23:05:15.158Z,2.40
2023-02-02T23:08:17.481Z,1.87
2023-02-02T23:11:20.096Z,2.50
2023-02-02T23:14:22.410Z,2.45
2023-02-02T23:17:24.985Z,1.27
2023-02-02T23:20:27.758Z,2.17
2023-02-02T23:23:30.560Z,2.12
2023-02-02T23:26:32.925Z,2.45
2023-02-02T23:29:35.668Z,2.70
2023-02-02T23:32:38.055Z,2.40
2023-02-02T23:35:40.659Z,1.50
2023-02-02T23:38:42.989Z,2.35
2023-02-02T23:41:45.666Z,2.97
2023-02-02T23:44:48.143Z,1.80
2023-02-02T23:47:50.754Z,1.60
2023-02-02T23:50:53.587Z,1.73
2023-02-02T23:53:56.986Z,1.33
2023-02-02T23:56:59.411Z,2.50
